Lunamar — 5BNV2 — position and weather

sailwx.info

Track history (hours):
 
Tides and Currents Weather Stations Pressure Air Temp Water Temp Dewpoint Dewpoint Depression Visibility Wind Speed Wind Dir Waves Ship Positions

Lunamar

Last reported at 2016-Jul-01 03:03 UTC. Time now 2016-Jul-01 22:41 UTC.
Position N 48°49' W 004°53'.

Length 90 m; draft 5.2 m.

Type: Cargo ship. MMSI: 212762000.

Date/timePositionNaut miles runAvg speedWind from/ knotsBaromVisibWave heightAir tempDewpointWater temp
2016-Jul-01 03:03N 48°49' W 004°53'510.2
2016-Jul-01 02:33N 48°45' W 004°59'1110.6
2016-Jul-01 01:33N 48°39' W 005°12'87 9.6
2016-Jun-30 16:30N 47°15' W 005°46'9 8.5
2016-Jun-30 15:29N 47°06' W 005°48'205 8.6
2016-Jun-29 15:32N 43°41' W 005°58'  
2016-Jun-25 12:32N 48°42' W 005°10'94 9.4
2016-Jun-25 02:33N 49°44' W 003°22'1310.5
2016-Jun-25 01:19N 49°52' W 003°07'7 9.6
2016-Jun-25 00:33N 49°57' W 002°58'8 8.2
2016-Jun-24 23:33N 50°00' W 002°46'98 9.8
2016-Jun-24 13:33N 50°28' W 000°19'9 9.0
2016-Jun-24 12:33N 50°30' W 000°05'8 7.8
2016-Jun-24 11:32N 50°33' E 000°07'7 7.6
2016-Jun-24 10:34N 50°35' E 000°18'23 9.5
2016-Jun-24 08:05N 50°46' E 000°51'711.5
2016-Jun-24 07:28N 50°50' E 000°60'2910.0
2016-Jun-24 04:34N 51°09' E 001°35'7 7.2
2016-Jun-24 03:34N 51°13' E 001°44'7 7.4
2016-Jun-24 02:33N 51°20' E 001°49'8 8.3
2016-Jun-24 01:34N 51°27' E 001°56'10 9.9
2016-Jun-24 00:33N 51°34' E 002°06'159 9.9
2016-Jun-23 08:33N 53°33' E 005°01'8 7.8
2016-Jun-23 07:33N 53°36' E 005°13'18 9.1
2016-Jun-23 05:33N 53°42' E 005°42'1110.9
2016-Jun-23 04:33N 53°46' E 005°59'1111.2
2016-Jun-23 03:33N 53°49' E 006°18'1111.1
2016-Jun-23 02:33N 53°52' E 006°36'1110.6
2016-Jun-23 01:33N 53°54' E 006°53'1010.2
2016-Jun-23 00:32N 53°56' E 007°11'9 9.3
2016-Jun-22 23:33N 53°59' E 007°25'9 8.9
2016-Jun-22 22:33N 54°01' E 007°40'9 8.7
2016-Jun-22 21:33N 54°01' E 007°55'9 8.7
2016-Jun-22 20:33N 54°01' E 008°10'10 9.9
2016-Jun-22 19:32N 53°59' E 008°27'1211.8
2016-Jun-22 18:34N 53°53' E 008°43'1212.3
2016-Jun-22 17:33N 53°52' E 009°04'3 3.0
2016-Jun-22 16:33N 53°54' E 009°09'4 3.8
2016-Jun-22 15:33N 53°56' E 009°13'8 8.2
2016-Jun-22 14:33N 54°04' E 009°19'27 6.1
2016-Jun-22 10:06N 54°21' E 009°56'4 7.1
2016-Jun-22 09:30N 54°22' E 010°03'4 3.8
2016-Jun-22 08:33N 54°22' E 010°09'6 6.4
2016-Jun-22 07:34N 54°27' E 010°14'14 9.8
2016-Jun-22 06:10N 54°34' E 010°35'6 9.9
2016-Jun-22 05:34N 54°35' E 010°45'9 9.0
2016-Jun-22 04:34N 54°36' E 011°00'9 9.0
2016-Jun-22 03:33N 54°35' E 011°16'10 9.6
2016-Jun-22 02:33N 54°30' E 011°31'10 9.9
2016-Jun-22 01:34N 54°27' E 011°46'1010.2
2016-Jun-22 00:34N 54°27' E 012°04'9 8.6
2016-Jun-21 23:33N 54°34' E 012°13'9 8.8
2016-Jun-21 22:34N 54°41' E 012°22'4010.1
2016-Jun-21 18:34N 54°57' E 013°27'1010.2
2016-Jun-21 17:34N 54°60' E 013°44'10 9.7
2016-Jun-21 16:34N 55°03' E 013°60'10 9.5
2016-Jun-21 15:34N 55°09' E 014°13'10 9.8
2016-Jun-21 14:33N 55°17' E 014°23'10 9.7
2016-Jun-21 13:33N 55°24' E 014°34'9 9.5
2016-Jun-21 12:34N 55°30' E 014°48'10 9.7
2016-Jun-21 11:33N 55°35' E 015°02'  
Track history (hours):
 
Tides and Currents Weather Stations Pressure Air Temp Water Temp Dewpoint Dewpoint Depression Visibility Wind Speed Wind Dir Waves Ship Positions

Lunamar

Last reported at 2016-Jul-01 03:03 UTC. Time now 2016-Jul-01 22:41 UTC.
Position N 48°49' W 004°53'.

Length 90 m; draft 5.2 m.

Type: Cargo ship. MMSI: 212762000.

Date/timePositionNaut miles runAvg speedWind from/ knotsBaromVisibWave heightAir tempDewpointWater temp
2016-Jul-01 03:03N 48°49' W 004°53'510.2
2016-Jul-01 02:33N 48°45' W 004°59'1110.6
2016-Jul-01 01:33N 48°39' W 005°12'87 9.6
2016-Jun-30 16:30N 47°15' W 005°46'9 8.5
2016-Jun-30 15:29N 47°06' W 005°48'205 8.6
2016-Jun-29 15:32N 43°41' W 005°58'  
2016-Jun-25 12:32N 48°42' W 005°10'94 9.4
2016-Jun-25 02:33N 49°44' W 003°22'1310.5
2016-Jun-25 01:19N 49°52' W 003°07'7 9.6
2016-Jun-25 00:33N 49°57' W 002°58'8 8.2
2016-Jun-24 23:33N 50°00' W 002°46'98 9.8
2016-Jun-24 13:33N 50°28' W 000°19'9 9.0
2016-Jun-24 12:33N 50°30' W 000°05'8 7.8
2016-Jun-24 11:32N 50°33' E 000°07'7 7.6
2016-Jun-24 10:34N 50°35' E 000°18'23 9.5
2016-Jun-24 08:05N 50°46' E 000°51'711.5
2016-Jun-24 07:28N 50°50' E 000°60'2910.0
2016-Jun-24 04:34N 51°09' E 001°35'7 7.2
2016-Jun-24 03:34N 51°13' E 001°44'7 7.4
2016-Jun-24 02:33N 51°20' E 001°49'8 8.3
2016-Jun-24 01:34N 51°27' E 001°56'10 9.9
2016-Jun-24 00:33N 51°34' E 002°06'159 9.9
2016-Jun-23 08:33N 53°33' E 005°01'8 7.8
2016-Jun-23 07:33N 53°36' E 005°13'18 9.1
2016-Jun-23 05:33N 53°42' E 005°42'1110.9
2016-Jun-23 04:33N 53°46' E 005°59'1111.2
2016-Jun-23 03:33N 53°49' E 006°18'1111.1
2016-Jun-23 02:33N 53°52' E 006°36'1110.6
2016-Jun-23 01:33N 53°54' E 006°53'1010.2
2016-Jun-23 00:32N 53°56' E 007°11'9 9.3
2016-Jun-22 23:33N 53°59' E 007°25'9 8.9
2016-Jun-22 22:33N 54°01' E 007°40'9 8.7
2016-Jun-22 21:33N 54°01' E 007°55'9 8.7
2016-Jun-22 20:33N 54°01' E 008°10'10 9.9
2016-Jun-22 19:32N 53°59' E 008°27'1211.8
2016-Jun-22 18:34N 53°53' E 008°43'1212.3
2016-Jun-22 17:33N 53°52' E 009°04'3 3.0
2016-Jun-22 16:33N 53°54' E 009°09'4 3.8
2016-Jun-22 15:33N 53°56' E 009°13'8 8.2
2016-Jun-22 14:33N 54°04' E 009°19'27 6.1
2016-Jun-22 10:06N 54°21' E 009°56'4 7.1
2016-Jun-22 09:30N 54°22' E 010°03'4 3.8
2016-Jun-22 08:33N 54°22' E 010°09'6 6.4
2016-Jun-22 07:34N 54°27' E 010°14'14 9.8
2016-Jun-22 06:10N 54°34' E 010°35'6 9.9
2016-Jun-22 05:34N 54°35' E 010°45'9 9.0
2016-Jun-22 04:34N 54°36' E 011°00'9 9.0
2016-Jun-22 03:33N 54°35' E 011°16'10 9.6
2016-Jun-22 02:33N 54°30' E 011°31'10 9.9
2016-Jun-22 01:34N 54°27' E 011°46'1010.2
2016-Jun-22 00:34N 54°27' E 012°04'9 8.6
2016-Jun-21 23:33N 54°34' E 012°13'9 8.8
2016-Jun-21 22:34N 54°41' E 012°22'4010.1
2016-Jun-21 18:34N 54°57' E 013°27'1010.2
2016-Jun-21 17:34N 54°60' E 013°44'10 9.7
2016-Jun-21 16:34N 55°03' E 013°60'10 9.5
2016-Jun-21 15:34N 55°09' E 014°13'10 9.8
2016-Jun-21 14:33N 55°17' E 014°23'10 9.7
2016-Jun-21 13:33N 55°24' E 014°34'9 9.5
2016-Jun-21 12:34N 55°30' E 014°48'10 9.7
2016-Jun-21 11:33N 55°35' E 015°02'  

Dump ship's entire track history